sensor_id;sensor_type;location;lat;lon;timestamp;pressure;altitude;pressure_sealevel;temperature;humidity
47556;BME280;33291;46.222;26.460;2023-02-28T00:01:30;97463.06;;;0.58;84.62
47556;BME280;33291;46.222;26.460;2023-02-28T00:03:56;97467.56;;;0.51;84.06
47556;BME280;33291;46.222;26.460;2023-02-28T00:06:21;97458.56;;;0.39;83.94
47556;BME280;33291;46.222;26.460;2023-02-28T00:08:47;97475.63;;;0.40;84.37
47556;BME280;33291;46.222;26.460;2023-02-28T00:11:14;97481.44;;;0.45;83.59
47556;BME280;33291;46.222;26.460;2023-02-28T00:13:42;97469.69;;;0.40;84.41
47556;BME280;33291;46.222;26.460;2023-02-28T00:16:13;97488.25;;;0.46;85.21
47556;BME280;33291;46.222;26.460;2023-02-28T00:18:40;97475.47;;;0.45;85.73
47556;BME280;33291;46.222;26.460;2023-02-28T00:21:06;97476.16;;;0.50;86.52
47556;BME280;33291;46.222;26.460;2023-02-28T00:23:32;97471.03;;;0.50;86.63
47556;BME280;33291;46.222;26.460;2023-02-28T00:25:58;97476.78;;;0.57;86.96
47556;BME280;33291;46.222;26.460;2023-02-28T00:28:24;97476.69;;;0.60;87.26
47556;BME280;33291;46.222;26.460;2023-02-28T00:30:50;97481.06;;;0.56;86.57
47556;BME280;33291;46.222;26.460;2023-02-28T00:33:16;97486.13;;;0.58;86.41
47556;BME280;33291;46.222;26.460;2023-02-28T00:35:41;97481.91;;;0.57;86.59
47556;BME280;33291;46.222;26.460;2023-02-28T00:38:07;97481.88;;;0.58;87.07
47556;BME280;33291;46.222;26.460;2023-02-28T00:40:32;97494.47;;;0.64;87.00
47556;BME280;33291;46.222;26.460;2023-02-28T00:42:58;97481.59;;;0.66;86.90
47556;BME280;33291;46.222;26.460;2023-02-28T00:45:23;97492.47;;;0.73;87.14
47556;BME280;33291;46.222;26.460;2023-02-28T00:47:49;97488.31;;;0.70;87.17
47556;BME280;33291;46.222;26.460;2023-02-28T00:50:19;97494.97;;;0.74;87.37
47556;BME280;33291;46.222;26.460;2023-02-28T00:52:45;97496.00;;;0.70;87.21
47556;BME280;33291;46.222;26.460;2023-02-28T00:55:11;97494.97;;;0.74;87.55
47556;BME280;33291;46.222;26.460;2023-02-28T00:57:36;97484.81;;;0.71;87.46
47556;BME280;33291;46.222;26.460;2023-02-28T01:00:03;97497.50;;;0.76;87.61
47556;BME280;33291;46.222;26.460;2023-02-28T01:02:29;97488.09;;;0.76;87.69
47556;BME280;33291;46.222;26.460;2023-02-28T01:04:55;97486.41;;;0.75;87.99
47556;BME280;33291;46.222;26.460;2023-02-28T01:07:22;97492.31;;;0.77;88.04
47556;BME280;33291;46.222;26.460;2023-02-28T01:09:47;97488.09;;;0.76;88.19
47556;BME280;33291;46.222;26.460;2023-02-28T01:12:13;97469.97;;;0.56;88.00
47556;BME280;33291;46.222;26.460;2023-02-28T01:14:38;97494.97;;;0.74;88.07
47556;BME280;33291;46.222;26.460;2023-02-28T01:17:04;97486.63;;;0.69;88.10
47556;BME280;33291;46.222;26.460;2023-02-28T01:19:29;97489.94;;;0.71;88.10
47556;BME280;33291;46.222;26.460;2023-02-28T01:21:55;97492.53;;;0.71;88.59
47556;BME280;33291;46.222;26.460;2023-02-28T01:24:20;97477.50;;;0.60;89.19
47556;BME280;33291;46.222;26.460;2023-02-28T01:26:46;97479.97;;;0.63;88.97
47556;BME280;33291;46.222;26.460;2023-02-28T01:29:11;97488.34;;;0.68;89.37
47556;BME280;33291;46.222;26.460;2023-02-28T01:31:37;97480.72;;;0.67;88.97
47556;BME280;33291;46.222;26.460;2023-02-28T01:34:02;97485.94;;;0.64;88.74
47556;BME280;33291;46.222;26.460;2023-02-28T01:36:28;97494.31;;;0.69;88.37
47556;BME280;33291;46.222;26.460;2023-02-28T01:38:53;97495.09;;;0.71;88.43
47556;BME280;33291;46.222;26.460;2023-02-28T01:41:22;97495.94;;;0.72;88.76
47556;BME280;33291;46.222;26.460;2023-02-28T01:46:14;97495.94;;;0.72;88.10
47556;BME280;33291;46.222;26.460;2023-02-28T01:48:45;97492.56;;;0.69;88.11
47556;BME280;33291;46.222;26.460;2023-02-28T01:51:15;97499.38;;;0.70;88.24
47556;BME280;33291;46.222;26.460;2023-02-28T01:53:50;97504.50;;;0.70;88.32
47556;BME280;33291;46.222;26.460;2023-02-28T01:56:20;97498.63;;;0.68;88.54
47556;BME280;33291;46.222;26.460;2023-02-28T01:58:49;97503.75;;;0.68;88.71
47556;BME280;33291;46.222;26.460;2023-02-28T02:01:16;97509.84;;;0.64;88.90
47556;BME280;33291;46.222;26.460;2023-02-28T02:03:58;97504.09;;;0.58;89.27
47556;BME280;33291;46.222;26.460;2023-02-28T02:06:29;97484.00;;;0.45;89.86
47556;BME280;33291;46.222;26.460;2023-02-28T02:08:55;97509.22;;;0.58;89.64
47556;BME280;33291;46.222;26.460;2023-02-28T02:11:22;97492.44;;;0.49;89.54
47556;BME280;33291;46.222;26.460;2023-02-28T02:14:12;97520.22;;;0.61;89.73
47556;BME280;33291;46.222;26.460;2023-02-28T02:36:06;97505.16;;;0.52;90.38
47556;BME280;33291;46.222;26.460;2023-02-28T02:39:21;97514.56;;;0.51;90.56
47556;BME280;33291;46.222;26.460;2023-02-28T02:41:47;97499.47;;;0.42;90.45
47556;BME280;33291;46.222;26.460;2023-02-28T02:44:21;97511.22;;;0.49;89.97
47556;BME280;33291;46.222;26.460;2023-02-28T02:46:48;97513.97;;;0.43;90.50
47556;BME280;33291;46.222;26.460;2023-02-28T02:49:26;97518.03;;;0.50;90.36
47556;BME280;33291;46.222;26.460;2023-02-28T02:51:55;97520.78;;;0.44;90.65
47556;BME280;33291;46.222;26.460;2023-02-28T02:54:29;97527.56;;;0.45;90.31
47556;BME280;33291;46.222;26.460;2023-02-28T02:56:59;97534.38;;;0.46;90.65
47556;BME280;33291;46.222;26.460;2023-02-28T02:59:28;97517.63;;;0.36;90.47
47556;BME280;33291;46.222;26.460;2023-02-28T03:01:59;97524.28;;;0.42;90.68
47556;BME280;33291;46.222;26.460;2023-02-28T03:04:27;97530.13;;;0.45;90.59
47556;BME280;33291;46.222;26.460;2023-02-28T03:06:54;97526.81;;;0.43;90.69
47556;BME280;33291;46.222;26.460;2023-02-28T03:09:24;97510.94;;;0.32;90.80
47556;BME280;33291;46.222;26.460;2023-02-28T03:11:52;97529.47;;;0.40;91.18
47556;BME280;33291;46.222;26.460;2023-02-28T03:25:09;97540.59;;;0.39;91.15
47556;BME280;33291;46.222;26.460;2023-02-28T03:30:24;97538.13;;;0.36;91.38
47556;BME280;33291;46.222;26.460;2023-02-28T03:33:11;97547.47;;;0.39;91.65
47556;BME280;33291;46.222;26.460;2023-02-28T03:35:43;97540.69;;;0.36;91.80
47556;BME280;33291;46.222;26.460;2023-02-28T03:38:22;97547.50;;;0.37;91.86
47556;BME280;33291;46.222;26.460;2023-02-28T03:41:06;97544.16;;;0.35;92.13
47556;BME280;33291;46.222;26.460;2023-02-28T03:43:38;97540.03;;;0.31;92.40
47556;BME280;33291;46.222;26.460;2023-02-28T03:46:09;97553.63;;;0.33;92.39
47556;BME280;33291;46.222;26.460;2023-02-28T03:48:41;97551.25;;;0.27;92.42
47556;BME280;33291;46.222;26.460;2023-02-28T03:51:10;97559.66;;;0.32;92.94
47556;BME280;33291;46.222;26.460;2023-02-28T03:53:52;97561.25;;;0.34;92.66
47556;BME280;33291;46.222;26.460;2023-02-28T03:56:22;97512.50;;;0.11;92.43
47556;BME280;33291;46.222;26.460;2023-02-28T03:59:26;97550.94;;;0.36;92.43
47556;BME280;33291;46.222;26.460;2023-02-28T04:01:53;97550.03;;;0.39;92.17
47556;BME280;33291;46.222;26.460;2023-02-28T04:04:20;97543.31;;;0.34;92.15
47556;BME280;33291;46.222;26.460;2023-02-28T04:06:49;97552.59;;;0.39;92.40
47556;BME280;33291;46.222;26.460;2023-02-28T04:09:15;97518.09;;;0.22;92.31
47556;BME280;33291;46.222;26.460;2023-02-28T04:11:51;97545.81;;;0.36;92.08
47556;BME280;33291;46.222;26.460;2023-02-28T04:14:17;97542.47;;;0.34;92.21
47556;BME280;33291;46.222;26.460;2023-02-28T04:16:44;97534.75;;;0.35;92.20
47556;BME280;33291;46.222;26.460;2023-02-28T04:19:11;97522.19;;;0.28;92.11
47556;BME280;33291;46.222;26.460;2023-02-28T04:21:39;97524.75;;;0.28;92.23
47556;BME280;33291;46.222;26.460;2023-02-28T04:24:07;97532.34;;;0.31;92.22
47556;BME280;33291;46.222;26.460;2023-02-28T04:26:34;97535.66;;;0.33;92.02
47556;BME280;33291;46.222;26.460;2023-02-28T04:29:02;97541.59;;;0.35;92.15
47556;BME280;33291;46.222;26.460;2023-02-28T04:31:28;97545.03;;;0.34;92.01
47556;BME280;33291;46.222;26.460;2023-02-28T04:33:53;97534.19;;;0.26;91.97
47556;BME280;33291;46.222;26.460;2023-02-28T04:36:19;97540.91;;;0.30;91.96
47556;BME280;33291;46.222;26.460;2023-02-28T04:38:45;97550.13;;;0.35;92.26
47556;BME280;33291;46.222;26.460;2023-02-28T04:41:11;97546.72;;;0.35;92.24
47556;BME280;33291;46.222;26.460;2023-02-28T04:43:37;97548.53;;;0.31;92.35
47556;BME280;33291;46.222;26.460;2023-02-28T04:46:04;97545.00;;;0.35;92.03
47556;BME280;33291;46.222;26.460;2023-02-28T04:48:33;97550.84;;;0.39;92.13
47556;BME280;33291;46.222;26.460;2023-02-28T04:51:01;97546.63;;;0.38;92.11
47556;BME280;33291;46.222;26.460;2023-02-28T04:53:28;97543.22;;;0.38;92.04
47556;BME280;33291;46.222;26.460;2023-02-28T04:55:54;97534.78;;;0.34;92.17
47556;BME280;33291;46.222;26.460;2023-02-28T04:58:20;97539.88;;;0.35;92.01
47556;BME280;33291;46.222;26.460;2023-02-28T05:00:48;97530.53;;;0.33;92.01
47556;BME280;33291;46.222;26.460;2023-02-28T05:03:13;97515.56;;;0.21;91.97
47556;BME280;33291;46.222;26.460;2023-02-28T05:05:39;97532.34;;;0.31;91.88
47556;BME280;33291;46.222;26.460;2023-02-28T05:08:04;97549.28;;;0.35;91.74
47556;BME280;33291;46.222;26.460;2023-02-28T05:10:30;97552.72;;;0.34;91.52
47556;BME280;33291;46.222;26.460;2023-02-28T05:12:56;97543.50;;;0.28;91.90
47556;BME280;33291;46.222;26.460;2023-02-28T05:15:22;97554.59;;;0.29;91.94
47556;BME280;33291;46.222;26.460;2023-02-28T05:17:47;97560.47;;;0.32;91.87
47556;BME280;33291;46.222;26.460;2023-02-28T05:20:13;97554.63;;;0.27;91.80
47556;BME280;33291;46.222;26.460;2023-02-28T05:22:39;97559.81;;;0.26;92.01
47556;BME280;33291;46.222;26.460;2023-02-28T05:25:05;97553.03;;;0.25;92.10
47556;BME280;33291;46.222;26.460;2023-02-28T05:27:31;97560.00;;;0.20;91.84
47556;BME280;33291;46.222;26.460;2023-02-28T05:29:57;97566.53;;;0.30;92.17
47556;BME280;33291;46.222;26.460;2023-02-28T05:32:22;97574.13;;;0.33;92.22
47556;BME280;33291;46.222;26.460;2023-02-28T05:34:48;97584.41;;;0.31;92.20
47556;BME280;33291;46.222;26.460;2023-02-28T05:37:15;97579.38;;;0.28;92.21
47556;BME280;33291;46.222;26.460;2023-02-28T05:39:41;97579.34;;;0.30;92.12
47556;BME280;33291;46.222;26.460;2023-02-28T05:42:07;97586.72;;;0.39;92.17
47556;BME280;33291;46.222;26.460;2023-02-28T05:44:33;97580.72;;;0.40;92.05
47556;BME280;33291;46.222;26.460;2023-02-28T05:46:58;97578.94;;;0.42;92.18
47556;BME280;33291;46.222;26.460;2023-02-28T05:49:24;97583.25;;;0.42;91.56
47556;BME280;33291;46.222;26.460;2023-02-28T05:51:49;97574.72;;;0.41;91.33
47556;BME280;33291;46.222;26.460;2023-02-28T05:54:15;97585.03;;;0.40;90.94
47556;BME280;33291;46.222;26.460;2023-02-28T05:56:40;97588.31;;;0.43;90.56
47556;BME280;33291;46.222;26.460;2023-02-28T05:59:09;97590.06;;;0.43;90.45
47556;BME280;33291;46.222;26.460;2023-02-28T06:01:40;97590.78;;;0.46;90.23
47556;BME280;33291;46.222;26.460;2023-02-28T06:04:08;97590.78;;;0.46;89.64
47556;BME280;33291;46.222;26.460;2023-02-28T06:06:34;97595.19;;;0.43;89.65
47556;BME280;33291;46.222;26.460;2023-02-28T06:09:01;97604.53;;;0.44;89.43
47556;BME280;33291;46.222;26.460;2023-02-28T06:11:27;97585.19;;;0.35;89.69
47556;BME280;33291;46.222;26.460;2023-02-28T06:13:57;97607.94;;;0.44;89.40
47556;BME280;33291;46.222;26.460;2023-02-28T06:16:25;97614.72;;;0.45;89.56
47556;BME280;33291;46.222;26.460;2023-02-28T06:18:51;97596.09;;;0.40;88.98
47556;BME280;33291;46.222;26.460;2023-02-28T06:21:17;97596.78;;;0.45;89.32
47556;BME280;33291;46.222;26.460;2023-02-28T06:23:43;97596.94;;;0.41;88.98
47556;BME280;33291;46.222;26.460;2023-02-28T06:26:09;97601.09;;;0.45;88.87
47556;BME280;33291;46.222;26.460;2023-02-28T06:28:35;97608.72;;;0.46;88.83
47556;BME280;33291;46.222;26.460;2023-02-28T06:31:09;97599.25;;;0.48;88.86
47556;BME280;33291;46.222;26.460;2023-02-28T06:33:36;97599.25;;;0.48;88.65
47556;BME280;33291;46.222;26.460;2023-02-28T06:36:02;97571.56;;;0.33;88.64
47556;BME280;33291;46.222;26.460;2023-02-28T06:38:27;97594.84;;;0.53;88.48
47556;BME280;33291;46.222;26.460;2023-02-28T06:40:57;97596.50;;;0.55;88.29
47556;BME280;33291;46.222;26.460;2023-02-28T06:43:24;97599.97;;;0.53;88.15
47556;BME280;33291;46.222;26.460;2023-02-28T06:45:49;97606.69;;;0.56;88.46
47556;BME280;33291;46.222;26.460;2023-02-28T06:48:15;97608.44;;;0.56;88.18
47556;BME280;33291;46.222;26.460;2023-02-28T06:50:40;97606.84;;;0.51;87.89
47556;BME280;33291;46.222;26.460;2023-02-28T06:53:06;97620.47;;;0.53;87.89
47556;BME280;33291;46.222;26.460;2023-02-28T06:55:31;97632.28;;;0.58;87.88
47556;BME280;33291;46.222;26.460;2023-02-28T06:57:57;97622.13;;;0.55;87.86
47556;BME280;33291;46.222;26.460;2023-02-28T07:00:23;97627.41;;;0.50;87.73
47556;BME280;33291;46.222;26.460;2023-02-28T07:02:50;97643.50;;;0.55;87.71
47556;BME280;33291;46.222;26.460;2023-02-28T07:05:15;97639.19;;;0.56;87.85
47556;BME280;33291;46.222;26.460;2023-02-28T07:07:41;97634.16;;;0.52;87.95
47556;BME280;33291;46.222;26.460;2023-02-28T07:10:12;97644.28;;;0.57;88.11
47556;BME280;33291;46.222;26.460;2023-02-28T07:12:39;97642.44;;;0.61;88.32
47556;BME280;33291;46.222;26.460;2023-02-28T07:15:05;97647.50;;;0.64;88.41
47556;BME280;33291;46.222;26.460;2023-02-28T07:17:31;97650.03;;;0.65;88.46
47556;BME280;33291;46.222;26.460;2023-02-28T07:19:56;97646.44;;;0.69;88.13
47556;BME280;33291;46.222;26.460;2023-02-28T07:22:22;97645.66;;;0.67;88.73
47556;BME280;33291;46.222;26.460;2023-02-28T07:24:47;97650.84;;;0.66;88.30
47556;BME280;33291;46.222;26.460;2023-02-28T07:27:13;97651.41;;;0.74;88.03
47556;BME280;33291;46.222;26.460;2023-02-28T07:29:49;97624.22;;;0.70;88.22
47556;BME280;33291;46.222;26.460;2023-02-28T07:32:14;97635.84;;;0.80;87.79
47556;BME280;33291;46.222;26.460;2023-02-28T07:34:39;97626.59;;;0.76;87.36
47556;BME280;33291;46.222;26.460;2023-02-28T07:37:05;97640.81;;;0.85;86.98
47556;BME280;33291;46.222;26.460;2023-02-28T07:39:30;97647.72;;;0.83;86.52
47556;BME280;33291;46.222;26.460;2023-02-28T07:41:56;97651.94;;;0.85;86.63
47556;BME280;33291;46.222;26.460;2023-02-28T07:44:21;97648.44;;;0.86;86.63
47556;BME280;33291;46.222;26.460;2023-02-28T07:46:47;97647.56;;;0.87;86.99
47556;BME280;33291;46.222;26.460;2023-02-28T07:49:12;97662.09;;;0.88;87.46
47556;BME280;33291;46.222;26.460;2023-02-28T07:51:38;97665.53;;;0.87;87.51
47556;BME280;33291;46.222;26.460;2023-02-28T07:54:03;97671.53;;;0.86;87.99
47556;BME280;33291;46.222;26.460;2023-02-28T07:56:29;97675.91;;;0.84;88.55
47556;BME280;33291;46.222;26.460;2023-02-28T07:58:55;97685.28;;;0.85;88.67
47556;BME280;33291;46.222;26.460;2023-02-28T08:01:20;97670.97;;;0.78;88.86
47556;BME280;33291;46.222;26.460;2023-02-28T08:03:46;97671.06;;;0.75;89.09
47556;BME280;33291;46.222;26.460;2023-02-28T08:06:20;97676.88;;;0.80;89.44
47556;BME280;33291;46.222;26.460;2023-02-28T08:08:46;97676.00;;;0.81;89.98
47556;BME280;33291;46.222;26.460;2023-02-28T08:11:12;97681.91;;;0.83;89.94
47556;BME280;33291;46.222;26.460;2023-02-28T08:13:38;97669.19;;;0.80;90.16
47556;BME280;33291;46.222;26.460;2023-02-28T08:16:03;97669.03;;;0.85;90.47
47556;BME280;33291;46.222;26.460;2023-02-28T08:18:29;97662.88;;;0.91;90.74
47556;BME280;33291;46.222;26.460;2023-02-28T08:20:54;97658.56;;;0.91;90.84
47556;BME280;33291;46.222;26.460;2023-02-28T08:23:20;97663.63;;;0.93;90.80
47556;BME280;33291;46.222;26.460;2023-02-28T08:25:53;97661.00;;;0.96;90.93
47556;BME280;33291;46.222;26.460;2023-02-28T08:28:18;97657.56;;;0.95;90.32
47556;BME280;33291;46.222;26.460;2023-02-28T08:30:44;97654.97;;;0.97;90.09
47556;BME280;33291;46.222;26.460;2023-02-28T08:33:09;97654.84;;;1.00;89.72
47556;BME280;33291;46.222;26.460;2023-02-28T08:35:36;97639.78;;;0.91;89.53
47556;BME280;33291;46.222;26.460;2023-02-28T08:38:02;97637.25;;;0.89;89.45
47556;BME280;33291;46.222;26.460;2023-02-28T08:40:27;97634.44;;;0.97;89.19
47556;BME280;33291;46.222;26.460;2023-02-28T08:42:53;97646.13;;;1.05;89.44
47556;BME280;33291;46.222;26.460;2023-02-28T08:45:18;97633.50;;;0.99;88.87
47556;BME280;33291;46.222;26.460;2023-02-28T08:47:44;97642.56;;;1.10;88.92
47556;BME280;33291;46.222;26.460;2023-02-28T08:50:10;97649.31;;;1.12;88.88
47556;BME280;33291;46.222;26.460;2023-02-28T08:52:35;97644.97;;;1.14;88.73
47556;BME280;33291;46.222;26.460;2023-02-28T08:55:01;97647.56;;;1.14;88.54
47556;BME280;33291;46.222;26.460;2023-02-28T08:57:26;97655.91;;;1.19;88.74
47556;BME280;33291;46.222;26.460;2023-02-28T08:59:52;97650.78;;;1.19;88.97
47556;BME280;33291;46.222;26.460;2023-02-28T09:02:18;97649.00;;;1.21;89.02
47556;BME280;33291;46.222;26.460;2023-02-28T09:04:44;97641.28;;;1.21;89.22
47556;BME280;33291;46.222;26.460;2023-02-28T09:07:12;97651.47;;;1.24;88.99
47556;BME280;33291;46.222;26.460;2023-02-28T09:09:38;97642.94;;;1.24;89.17
47556;BME280;33291;46.222;26.460;2023-02-28T09:12:19;97648.09;;;1.22;88.89
47556;BME280;33291;46.222;26.460;2023-02-28T09:14:45;97627.22;;;1.08;88.48
47556;BME280;33291;46.222;26.460;2023-02-28T09:17:10;97647.91;;;1.29;88.68
47556;BME280;33291;46.222;26.460;2023-02-28T09:19:36;97651.38;;;1.28;88.20
47556;BME280;33291;46.222;26.460;2023-02-28T09:22:02;97649.69;;;1.27;88.54
47556;BME280;33291;46.222;26.460;2023-02-28T09:24:27;97655.59;;;1.29;88.29
47556;BME280;33291;46.222;26.460;2023-02-28T09:26:53;97654.81;;;1.27;88.40
47556;BME280;33291;46.222;26.460;2023-02-28T09:29:18;97656.63;;;1.23;88.29
47556;BME280;33291;46.222;26.460;2023-02-28T09:31:44;97647.44;;;1.17;88.52
47556;BME280;33291;46.222;26.460;2023-02-28T09:34:09;97650.78;;;1.19;88.79
47556;BME280;33291;46.222;26.460;2023-02-28T09:36:35;97652.56;;;1.17;88.64
47556;BME280;33291;46.222;26.460;2023-02-28T09:39:02;97625.75;;;1.01;88.64
47556;BME280;33291;46.222;26.460;2023-02-28T09:41:36;97641.63;;;1.12;88.83
47556;BME280;33291;46.222;26.460;2023-02-28T09:44:07;97645.75;;;1.16;88.90
47556;BME280;33291;46.222;26.460;2023-02-28T09:46:39;97659.38;;;1.18;89.25
47556;BME280;33291;46.222;26.460;2023-02-28T09:49:16;97656.06;;;1.15;89.13
47556;BME280;33291;46.222;26.460;2023-02-28T09:51:52;97659.38;;;1.18;89.28
47556;BME280;33291;46.222;26.460;2023-02-28T09:54:26;97645.09;;;1.11;89.29
47556;BME280;33291;46.222;26.460;2023-02-28T09:56:53;97645.75;;;1.16;89.34
47556;BME280;33291;46.222;26.460;2023-02-28T10:02:50;97648.09;;;1.22;89.08
47556;BME280;33291;46.222;26.460;2023-02-28T10:08:19;97645.53;;;1.22;87.93
47556;BME280;33291;46.222;26.460;2023-02-28T10:10:53;97642.00;;;1.27;87.78
47556;BME280;33291;46.222;26.460;2023-02-28T10:13:28;97652.16;;;1.30;87.90
47556;BME280;33291;46.222;26.460;2023-02-28T10:16:10;97645.34;;;1.29;87.64
47556;BME280;33291;46.222;26.460;2023-02-28T10:18:46;97643.63;;;1.29;87.22
47556;BME280;33291;46.222;26.460;2023-02-28T10:21:34;97629.16;;;1.27;86.63
47556;BME280;33291;46.222;26.460;2023-02-28T10:27:00;97629.94;;;1.29;86.68
47556;BME280;33291;46.222;26.460;2023-02-28T10:29:28;97635.81;;;1.32;86.21
47556;BME280;33291;46.222;26.460;2023-02-28T10:31:56;97633.41;;;1.28;86.21
47556;BME280;33291;46.222;26.460;2023-02-28T10:34:22;97597.16;;;1.12;86.49
47556;BME280;33291;46.222;26.460;2023-02-28T10:36:49;97618.84;;;1.28;86.06
47556;BME280;33291;46.222;26.460;2023-02-28T10:39:52;97622.00;;;1.35;85.90
47556;BME280;33291;46.222;26.460;2023-02-28T10:45:05;97620.25;;;1.37;85.48
47556;BME280;33291;46.222;26.460;2023-02-28T10:47:33;97604.03;;;1.35;85.58
47556;BME280;33291;46.222;26.460;2023-02-28T10:49:59;97603.16;;;1.36;84.96
47556;BME280;33291;46.222;26.460;2023-02-28T10:52:39;97607.19;;;1.43;85.03
47556;BME280;33291;46.222;26.460;2023-02-28T10:55:34;97604.50;;;1.46;84.85
47556;BME280;33291;46.222;26.460;2023-02-28T10:58:00;97604.47;;;1.48;84.94
47556;BME280;33291;46.222;26.460;2023-02-28T11:00:32;97594.94;;;1.50;85.14
47556;BME280;33291;46.222;26.460;2023-02-28T11:02:59;97590.53;;;1.53;84.78
47556;BME280;33291;46.222;26.460;2023-02-28T11:05:32;97593.22;;;1.50;84.21
47556;BME280;33291;46.222;26.460;2023-02-28T11:08:06;97594.00;;;1.52;84.17
47556;BME280;33291;46.222;26.460;2023-02-28T11:10:37;97579.44;;;1.53;83.86
47556;BME280;33291;46.222;26.460;2023-02-28T11:13:02;97577.69;;;1.53;84.08
47556;BME280;33291;46.222;26.460;2023-02-28T11:15:33;97581.06;;;1.55;84.24
47556;BME280;33291;46.222;26.460;2023-02-28T11:18:23;97576.03;;;1.52;84.33
47556;BME280;33291;46.222;26.460;2023-02-28T11:20:52;97574.25;;;1.54;84.33
47556;BME280;33291;46.222;26.460;2023-02-28T11:23:20;97577.59;;;1.56;84.53
47556;BME280;33291;46.222;26.460;2023-02-28T11:25:52;97578.44;;;1.57;84.61
47556;BME280;33291;46.222;26.460;2023-02-28T11:28:32;97581.84;;;1.57;84.69
47556;BME280;33291;46.222;26.460;2023-02-28T11:33:50;97574.25;;;1.54;84.71
47556;BME280;33291;46.222;26.460;2023-02-28T11:36:28;97584.34;;;1.59;84.50
47556;BME280;33291;46.222;26.460;2023-02-28T11:39:07;97587.72;;;1.61;84.41
47556;BME280;33291;46.222;26.460;2023-02-28T11:47:38;97579.25;;;1.57;84.27
47556;BME280;33291;46.222;26.460;2023-02-28T11:50:16;97582.53;;;1.63;84.07
47556;BME280;33291;46.222;26.460;2023-02-28T11:52:59;97573.31;;;1.57;84.14
47556;BME280;33291;46.222;26.460;2023-02-28T11:55:36;97569.06;;;1.56;84.42
47556;BME280;33291;46.222;26.460;2023-02-28T11:58:33;97568.00;;;1.62;84.38
47556;BME280;33291;46.222;26.460;2023-02-28T12:01:19;97581.53;;;1.65;84.79
47556;BME280;33291;46.222;26.460;2023-02-28T12:06:43;97567.22;;;1.59;84.40
47556;BME280;33291;46.222;26.460;2023-02-28T12:20:22;97574.75;;;1.64;84.45
47556;BME280;33291;46.222;26.460;2023-02-28T12:28:18;97565.59;;;1.57;84.76
47556;BME280;33291;46.222;26.460;2023-02-28T12:31:11;97566.38;;;1.59;84.43
47556;BME280;33291;46.222;26.460;2023-02-28T12:33:44;97570.69;;;1.58;84.82
47556;BME280;33291;46.222;26.460;2023-02-28T12:36:12;97555.50;;;1.52;84.77
47556;BME280;33291;46.222;26.460;2023-02-28T12:38:47;97563.84;;;1.57;84.82
47556;BME280;33291;46.222;26.460;2023-02-28T12:41:17;97567.22;;;1.59;85.10
47556;BME280;33291;46.222;26.460;2023-02-28T12:43:49;97560.41;;;1.58;84.95
47556;BME280;33291;46.222;26.460;2023-02-28T12:46:38;97540.91;;;1.53;84.55
47556;BME280;33291;46.222;26.460;2023-02-28T12:49:12;97557.72;;;1.62;84.84
47556;BME280;33291;46.222;26.460;2023-02-28T12:51:40;97551.13;;;1.54;84.91
47556;BME280;33291;46.222;26.460;2023-02-28T12:54:23;97567.94;;;1.63;84.51
47556;BME280;33291;46.222;26.460;2023-02-28T12:59:46;97564.53;;;1.63;85.08
47556;BME280;33291;46.222;26.460;2023-02-28T13:10:10;97541.53;;;1.59;85.52
47556;BME280;33291;46.222;26.460;2023-02-28T13:12:36;97541.53;;;1.59;85.79
47556;BME280;33291;46.222;26.460;2023-02-28T13:15:25;97538.97;;;1.59;85.82
47556;BME280;33291;46.222;26.460;2023-02-28T13:17:58;97536.53;;;1.56;85.85
47556;BME280;33291;46.222;26.460;2023-02-28T13:20:27;97539.13;;;1.55;86.29
47556;BME280;33291;46.222;26.460;2023-02-28T13:22:54;97529.88;;;1.51;86.59
47556;BME280;33291;46.222;26.460;2023-02-28T13:27:47;97540.69;;;1.59;86.77
47556;BME280;33291;46.222;26.460;2023-02-28T13:33:31;97543.06;;;1.64;86.37
47556;BME280;33291;46.222;26.460;2023-02-28T13:38:41;97531.97;;;1.63;86.50
47556;BME280;33291;46.222;26.460;2023-02-28T13:49:39;97539.56;;;1.66;86.13
47556;BME280;33291;46.222;26.460;2023-02-28T14:05:04;97538.75;;;1.66;86.08
47556;BME280;33291;46.222;26.460;2023-02-28T14:07:38;97533.59;;;1.66;86.19
47556;BME280;33291;46.222;26.460;2023-02-28T14:10:08;97520.19;;;1.57;86.24
47556;BME280;33291;46.222;26.460;2023-02-28T14:18:27;97535.25;;;1.67;86.32
47556;BME280;33291;46.222;26.460;2023-02-28T14:20:58;97525.22;;;1.60;86.47
47556;BME280;33291;46.222;26.460;2023-02-28T14:37:41;97517.28;;;1.45;87.11
47556;BME280;33291;46.222;26.460;2023-02-28T14:40:34;97536.47;;;1.58;87.09
47556;BME280;33291;46.222;26.460;2023-02-28T14:43:06;97539.03;;;1.58;87.15
47556;BME280;33291;46.222;26.460;2023-02-28T14:45:43;97529.59;;;1.58;87.36
47556;BME280;33291;46.222;26.460;2023-02-28T14:48:15;97532.38;;;1.52;87.04
47556;BME280;33291;46.222;26.460;2023-02-28T14:50:49;97553.63;;;1.56;87.11
47556;BME280;33291;46.222;26.460;2023-02-28T14:53:20;97553.75;;;1.53;87.21
47556;BME280;33291;46.222;26.460;2023-02-28T14:55:47;97551.94;;;1.56;87.15
47556;BME280;33291;46.222;26.460;2023-02-28T14:58:26;97536.59;;;1.53;87.28
47556;BME280;33291;46.222;26.460;2023-02-28T15:00:53;97544.25;;;1.55;87.49
47556;BME280;33291;46.222;26.460;2023-02-28T15:06:03;97530.66;;;1.53;87.42
47556;BME280;33291;46.222;26.460;2023-02-28T15:08:30;97541.66;;;1.56;87.24
47556;BME280;33291;46.222;26.460;2023-02-28T15:11:15;97532.38;;;1.52;87.24
47556;BME280;33291;46.222;26.460;2023-02-28T15:13:46;97535.78;;;1.53;87.48
47556;BME280;33291;46.222;26.460;2023-02-28T15:18:53;97526.56;;;1.47;87.65
47556;BME280;33291;46.222;26.460;2023-02-28T15:21:29;97535.78;;;1.53;87.81
47556;BME280;33291;46.222;26.460;2023-02-28T15:24:17;97532.38;;;1.52;87.87
47556;BME280;33291;46.222;26.460;2023-02-28T15:26:57;97534.31;;;1.46;87.68
47556;BME280;33291;46.222;26.460;2023-02-28T15:29:25;97541.84;;;1.50;88.03
47556;BME280;33291;46.222;26.460;2023-02-28T15:34:42;97536.84;;;1.47;88.14
47556;BME280;33291;46.222;26.460;2023-02-28T15:39:57;97538.41;;;1.51;87.99